sensor_id;sensor_type;location;lat;lon;timestamp;P1;durP1;ratioP1;P2;durP2;ratioP2
10687;SDS011;5392;42.688;23.298;2023-03-26T00:01:14;1.10;;;0.00;;
10687;SDS011;5392;42.688;23.298;2023-03-26T00:03:44;0.98;;;0.13;;
10687;SDS011;5392;42.688;23.298;2023-03-26T00:06:30;0.00;;;0.00;;
10687;SDS011;5392;42.688;23.298;2023-03-26T00:09:02;0.00;;;0.00;;
10687;SDS011;5392;42.688;23.298;2023-03-26T00:11:30;0.00;;;0.00;;
10687;SDS011;5392;42.688;23.298;2023-03-26T00:13:56;0.00;;;0.00;;
10687;SDS011;5392;42.688;23.298;2023-03-26T00:16:25;0.00;;;0.00;;
10687;SDS011;5392;42.688;23.298;2023-03-26T00:18:54;0.47;;;0.00;;
10687;SDS011;5392;42.688;23.298;2023-03-26T00:21:23;0.00;;;0.00;;
10687;SDS011;5392;42.688;23.298;2023-03-26T00:23:58;0.00;;;0.00;;
10687;SDS011;5392;42.688;23.298;2023-03-26T00:26:30;0.00;;;0.00;;
10687;SDS011;5392;42.688;23.298;2023-03-26T00:29:00;0.28;;;0.00;;
10687;SDS011;5392;42.688;23.298;2023-03-26T00:31:29;0.00;;;0.00;;
10687;SDS011;5392;42.688;23.298;2023-03-26T00:33:56;0.00;;;0.00;;
10687;SDS011;5392;42.688;23.298;2023-03-26T00:36:23;0.00;;;0.00;;
10687;SDS011;5392;42.688;23.298;2023-03-26T00:38:52;1.27;;;0.00;;
10687;SDS011;5392;42.688;23.298;2023-03-26T00:41:20;0.00;;;0.00;;
10687;SDS011;5392;42.688;23.298;2023-03-26T00:43:52;0.00;;;0.00;;
10687;SDS011;5392;42.688;23.298;2023-03-26T00:46:24;0.55;;;0.00;;
10687;SDS011;5392;42.688;23.298;2023-03-26T00:48:51;0.00;;;0.00;;
10687;SDS011;5392;42.688;23.298;2023-03-26T00:51:18;2.92;;;0.00;;
10687;SDS011;5392;42.688;23.298;2023-03-26T00:53:48;0.00;;;0.00;;
10687;SDS011;5392;42.688;23.298;2023-03-26T00:56:16;0.00;;;0.00;;
10687;SDS011;5392;42.688;23.298;2023-03-26T00:58:43;0.00;;;0.00;;
10687;SDS011;5392;42.688;23.298;2023-03-26T01:01:12;1.55;;;0.00;;
10687;SDS011;5392;42.688;23.298;2023-03-26T01:03:41;1.85;;;0.00;;
10687;SDS011;5392;42.688;23.298;2023-03-26T01:06:23;2.28;;;0.10;;
10687;SDS011;5392;42.688;23.298;2023-03-26T01:08:53;0.13;;;0.00;;
10687;SDS011;5392;42.688;23.298;2023-03-26T01:11:26;0.00;;;0.00;;
10687;SDS011;5392;42.688;23.298;2023-03-26T01:13:56;1.15;;;0.00;;
10687;SDS011;5392;42.688;23.298;2023-03-26T01:16:49;0.20;;;0.00;;
10687;SDS011;5392;42.688;23.298;2023-03-26T01:21:59;0.00;;;0.00;;
10687;SDS011;5392;42.688;23.298;2023-03-26T01:24:25;1.08;;;0.00;;
10687;SDS011;5392;42.688;23.298;2023-03-26T01:26:53;0.00;;;0.00;;
10687;SDS011;5392;42.688;23.298;2023-03-26T01:35:25;1.77;;;1.67;;
10687;SDS011;5392;42.688;23.298;2023-03-26T01:38:21;1.25;;;0.80;;
10687;SDS011;5392;42.688;23.298;2023-03-26T01:41:31;1.20;;;0.50;;
10687;SDS011;5392;42.688;23.298;2023-03-26T01:46:12;0.10;;;0.10;;
10687;SDS011;5392;42.688;23.298;2023-03-26T01:48:44;0.45;;;0.10;;
10687;SDS011;5392;42.688;23.298;2023-03-26T01:51:12;0.10;;;0.10;;
10687;SDS011;5392;42.688;23.298;2023-03-26T01:53:50;0.10;;;0.10;;
10687;SDS011;5392;42.688;23.298;2023-03-26T02:02:13;2.30;;;0.10;;
10687;SDS011;5392;42.688;23.298;2023-03-26T02:04:53;0.03;;;0.03;;
10687;SDS011;5392;42.688;23.298;2023-03-26T02:10:07;1.55;;;0.10;;
10687;SDS011;5392;42.688;23.298;2023-03-26T02:12:42;1.65;;;0.10;;
10687;SDS011;5392;42.688;23.298;2023-03-26T02:15:10;0.95;;;0.10;;
10687;SDS011;5392;42.688;23.298;2023-03-26T02:17:37;0.10;;;0.10;;
10687;SDS011;5392;42.688;23.298;2023-03-26T02:20:08;0.55;;;0.20;;
10687;SDS011;5392;42.688;23.298;2023-03-26T02:22:37;0.73;;;0.30;;
10687;SDS011;5392;42.688;23.298;2023-03-26T02:25:07;0.70;;;0.20;;
10687;SDS011;5392;42.688;23.298;2023-03-26T02:27:36;0.20;;;0.20;;
10687;SDS011;5392;42.688;23.298;2023-03-26T02:30:05;0.20;;;0.20;;
10687;SDS011;5392;42.688;23.298;2023-03-26T02:32:34;0.30;;;0.30;;
10687;SDS011;5392;42.688;23.298;2023-03-26T02:35:01;0.20;;;0.20;;
10687;SDS011;5392;42.688;23.298;2023-03-26T02:37:30;0.85;;;0.20;;
10687;SDS011;5392;42.688;23.298;2023-03-26T02:39:59;0.20;;;0.20;;
10687;SDS011;5392;42.688;23.298;2023-03-26T02:42:26;0.88;;;0.30;;
10687;SDS011;5392;42.688;23.298;2023-03-26T02:44:53;0.20;;;0.20;;
10687;SDS011;5392;42.688;23.298;2023-03-26T02:47:20;1.52;;;0.10;;
10687;SDS011;5392;42.688;23.298;2023-03-26T02:49:46;0.15;;;0.15;;
10687;SDS011;5392;42.688;23.298;2023-03-26T02:52:13;1.13;;;0.20;;
10687;SDS011;5392;42.688;23.298;2023-03-26T02:54:42;0.38;;;0.20;;
10687;SDS011;5392;42.688;23.298;2023-03-26T02:57:09;0.20;;;0.20;;
10687;SDS011;5392;42.688;23.298;2023-03-26T02:59:36;0.73;;;0.17;;
10687;SDS011;5392;42.688;23.298;2023-03-26T03:02:03;0.20;;;0.20;;
10687;SDS011;5392;42.688;23.298;2023-03-26T03:04:30;0.13;;;0.13;;
10687;SDS011;5392;42.688;23.298;2023-03-26T03:06:56;2.55;;;0.20;;
10687;SDS011;5392;42.688;23.298;2023-03-26T03:09:25;0.45;;;0.20;;
10687;SDS011;5392;42.688;23.298;2023-03-26T03:11:51;0.20;;;0.20;;
10687;SDS011;5392;42.688;23.298;2023-03-26T03:14:18;0.17;;;0.17;;
10687;SDS011;5392;42.688;23.298;2023-03-26T03:16:45;1.35;;;0.20;;
10687;SDS011;5392;42.688;23.298;2023-03-26T03:19:12;1.75;;;0.30;;
10687;SDS011;5392;42.688;23.298;2023-03-26T03:21:40;0.95;;;0.20;;
10687;SDS011;5392;42.688;23.298;2023-03-26T03:24:07;0.32;;;0.30;;
10687;SDS011;5392;42.688;23.298;2023-03-26T03:26:34;0.40;;;0.30;;
10687;SDS011;5392;42.688;23.298;2023-03-26T03:29:01;0.30;;;0.30;;
10687;SDS011;5392;42.688;23.298;2023-03-26T03:31:28;1.38;;;0.40;;
10687;SDS011;5392;42.688;23.298;2023-03-26T03:33:55;0.50;;;0.40;;
10687;SDS011;5392;42.688;23.298;2023-03-26T03:36:22;0.30;;;0.30;;
10687;SDS011;5392;42.688;23.298;2023-03-26T03:38:49;2.60;;;0.40;;
10687;SDS011;5392;42.688;23.298;2023-03-26T03:41:16;0.40;;;0.40;;
10687;SDS011;5392;42.688;23.298;2023-03-26T03:43:44;0.40;;;0.40;;
10687;SDS011;5392;42.688;23.298;2023-03-26T03:46:11;0.30;;;0.30;;
10687;SDS011;5392;42.688;23.298;2023-03-26T03:48:38;0.50;;;0.40;;
10687;SDS011;5392;42.688;23.298;2023-03-26T03:51:04;0.68;;;0.43;;
10687;SDS011;5392;42.688;23.298;2023-03-26T03:53:31;0.50;;;0.50;;
10687;SDS011;5392;42.688;23.298;2023-03-26T03:56:03;0.50;;;0.50;;
10687;SDS011;5392;42.688;23.298;2023-03-26T03:58:35;0.90;;;0.50;;
10687;SDS011;5392;42.688;23.298;2023-03-26T04:01:02;1.35;;;0.65;;
10687;SDS011;5392;42.688;23.298;2023-03-26T04:03:30;0.63;;;0.63;;
10687;SDS011;5392;42.688;23.298;2023-03-26T04:05:59;1.50;;;0.65;;
10687;SDS011;5392;42.688;23.298;2023-03-26T04:08:25;0.60;;;0.60;;
10687;SDS011;5392;42.688;23.298;2023-03-26T04:10:52;2.67;;;1.25;;
10687;SDS011;5392;42.688;23.298;2023-03-26T04:13:18;0.90;;;0.90;;
10687;SDS011;5392;42.688;23.298;2023-03-26T04:15:45;2.83;;;1.00;;
10687;SDS011;5392;42.688;23.298;2023-03-26T04:18:12;0.75;;;0.75;;
10687;SDS011;5392;42.688;23.298;2023-03-26T04:20:40;1.35;;;0.93;;
10687;SDS011;5392;42.688;23.298;2023-03-26T04:23:12;0.88;;;0.70;;
10687;SDS011;5392;42.688;23.298;2023-03-26T04:25:43;1.40;;;1.38;;
10687;SDS011;5392;42.688;23.298;2023-03-26T04:28:30;1.48;;;1.13;;
10687;SDS011;5392;42.688;23.298;2023-03-26T04:31:00;2.13;;;2.03;;
10687;SDS011;5392;42.688;23.298;2023-03-26T04:33:31;4.03;;;1.80;;
10687;SDS011;5392;42.688;23.298;2023-03-26T04:36:00;1.55;;;1.50;;
10687;SDS011;5392;42.688;23.298;2023-03-26T04:38:29;1.77;;;1.75;;
10687;SDS011;5392;42.688;23.298;2023-03-26T04:40:59;1.45;;;1.45;;
10687;SDS011;5392;42.688;23.298;2023-03-26T04:43:29;2.92;;;0.90;;
10687;SDS011;5392;42.688;23.298;2023-03-26T04:45:56;2.25;;;1.55;;
10687;SDS011;5392;42.688;23.298;2023-03-26T04:48:23;1.00;;;1.00;;
10687;SDS011;5392;42.688;23.298;2023-03-26T04:50:49;3.03;;;1.05;;
10687;SDS011;5392;42.688;23.298;2023-03-26T04:53:17;5.65;;;1.38;;
10687;SDS011;5392;42.688;23.298;2023-03-26T04:55:59;2.17;;;0.80;;
10687;SDS011;5392;42.688;23.298;2023-03-26T04:58:35;1.02;;;0.75;;
10687;SDS011;5392;42.688;23.298;2023-03-26T05:01:02;1.10;;;1.00;;
10687;SDS011;5392;42.688;23.298;2023-03-26T05:03:36;1.65;;;1.15;;
10687;SDS011;5392;42.688;23.298;2023-03-26T05:06:04;1.08;;;0.95;;
10687;SDS011;5392;42.688;23.298;2023-03-26T05:08:31;4.43;;;1.13;;
10687;SDS011;5392;42.688;23.298;2023-03-26T05:10:58;2.85;;;2.53;;
10687;SDS011;5392;42.688;23.298;2023-03-26T05:13:24;2.88;;;1.27;;
10687;SDS011;5392;42.688;23.298;2023-03-26T05:15:51;2.40;;;2.22;;
10687;SDS011;5392;42.688;23.298;2023-03-26T05:18:17;3.88;;;3.75;;
10687;SDS011;5392;42.688;23.298;2023-03-26T05:20:44;4.57;;;4.28;;
10687;SDS011;5392;42.688;23.298;2023-03-26T05:23:11;4.95;;;4.65;;
10687;SDS011;5392;42.688;23.298;2023-03-26T05:25:38;3.67;;;3.38;;
10687;SDS011;5392;42.688;23.298;2023-03-26T05:28:05;2.30;;;2.20;;
10687;SDS011;5392;42.688;23.298;2023-03-26T05:30:31;2.05;;;1.95;;
10687;SDS011;5392;42.688;23.298;2023-03-26T05:32:58;1.65;;;1.65;;
10687;SDS011;5392;42.688;23.298;2023-03-26T05:35:25;3.40;;;2.17;;
10687;SDS011;5392;42.688;23.298;2023-03-26T05:37:51;1.70;;;1.67;;
10687;SDS011;5392;42.688;23.298;2023-03-26T05:40:18;2.67;;;1.55;;
10687;SDS011;5392;42.688;23.298;2023-03-26T05:42:46;1.83;;;1.73;;
10687;SDS011;5392;42.688;23.298;2023-03-26T05:45:13;2.88;;;2.10;;
10687;SDS011;5392;42.688;23.298;2023-03-26T05:47:40;2.03;;;1.90;;
10687;SDS011;5392;42.688;23.298;2023-03-26T05:50:07;1.30;;;1.30;;
10687;SDS011;5392;42.688;23.298;2023-03-26T05:52:35;1.42;;;1.30;;
10687;SDS011;5392;42.688;23.298;2023-03-26T05:55:02;2.33;;;1.90;;
10687;SDS011;5392;42.688;23.298;2023-03-26T05:57:29;5.68;;;2.30;;
10687;SDS011;5392;42.688;23.298;2023-03-26T05:59:56;4.32;;;2.08;;
10687;SDS011;5392;42.688;23.298;2023-03-26T06:02:23;1.92;;;1.58;;
10687;SDS011;5392;42.688;23.298;2023-03-26T06:04:50;2.00;;;1.27;;
10687;SDS011;5392;42.688;23.298;2023-03-26T06:07:17;1.88;;;1.75;;
10687;SDS011;5392;42.688;23.298;2023-03-26T06:09:45;1.52;;;1.42;;
10687;SDS011;5392;42.688;23.298;2023-03-26T06:12:12;3.10;;;2.40;;
10687;SDS011;5392;42.688;23.298;2023-03-26T06:14:39;1.95;;;1.67;;
10687;SDS011;5392;42.688;23.298;2023-03-26T06:17:08;1.52;;;1.42;;
10687;SDS011;5392;42.688;23.298;2023-03-26T06:19:35;2.45;;;1.60;;
10687;SDS011;5392;42.688;23.298;2023-03-26T06:22:03;2.05;;;1.40;;
10687;SDS011;5392;42.688;23.298;2023-03-26T06:24:30;0.90;;;0.90;;
10687;SDS011;5392;42.688;23.298;2023-03-26T06:26:58;2.25;;;1.10;;
10687;SDS011;5392;42.688;23.298;2023-03-26T06:29:25;1.50;;;1.48;;
10687;SDS011;5392;42.688;23.298;2023-03-26T06:31:52;1.77;;;1.67;;
10687;SDS011;5392;42.688;23.298;2023-03-26T06:34:18;1.70;;;1.60;;
10687;SDS011;5392;42.688;23.298;2023-03-26T06:36:45;3.13;;;2.13;;
10687;SDS011;5392;42.688;23.298;2023-03-26T06:39:14;2.13;;;2.03;;
10687;SDS011;5392;42.688;23.298;2023-03-26T06:41:41;3.70;;;2.15;;
10687;SDS011;5392;42.688;23.298;2023-03-26T06:44:07;1.10;;;1.10;;
10687;SDS011;5392;42.688;23.298;2023-03-26T06:46:34;1.90;;;1.08;;
10687;SDS011;5392;42.688;23.298;2023-03-26T06:49:01;0.90;;;0.90;;
10687;SDS011;5392;42.688;23.298;2023-03-26T06:51:28;1.52;;;1.52;;
10687;SDS011;5392;42.688;23.298;2023-03-26T06:53:55;1.42;;;1.42;;
10687;SDS011;5392;42.688;23.298;2023-03-26T06:56:22;1.63;;;1.52;;
10687;SDS011;5392;42.688;23.298;2023-03-26T06:58:48;1.88;;;1.70;;
10687;SDS011;5392;42.688;23.298;2023-03-26T07:01:15;1.80;;;1.75;;
10687;SDS011;5392;42.688;23.298;2023-03-26T07:03:42;1.65;;;1.55;;
10687;SDS011;5392;42.688;23.298;2023-03-26T07:06:08;1.15;;;1.15;;
10687;SDS011;5392;42.688;23.298;2023-03-26T07:08:35;1.83;;;1.70;;
10687;SDS011;5392;42.688;23.298;2023-03-26T07:11:02;1.35;;;1.10;;
10687;SDS011;5392;42.688;23.298;2023-03-26T07:13:28;3.08;;;2.55;;
10687;SDS011;5392;42.688;23.298;2023-03-26T07:15:55;2.70;;;2.60;;
10687;SDS011;5392;42.688;23.298;2023-03-26T07:18:22;2.28;;;2.20;;
10687;SDS011;5392;42.688;23.298;2023-03-26T07:20:48;3.15;;;2.38;;
10687;SDS011;5392;42.688;23.298;2023-03-26T07:23:16;1.40;;;1.40;;
10687;SDS011;5392;42.688;23.298;2023-03-26T07:25:46;1.50;;;1.15;;
10687;SDS011;5392;42.688;23.298;2023-03-26T07:34:12;1.40;;;1.40;;
10687;SDS011;5392;42.688;23.298;2023-03-26T07:36:59;2.45;;;1.58;;
10687;SDS011;5392;42.688;23.298;2023-03-26T07:47:36;3.00;;;1.58;;
10687;SDS011;5392;42.688;23.298;2023-03-26T07:50:02;71.30;;;7.82;;
10687;SDS011;5392;42.688;23.298;2023-03-26T07:52:29;2.35;;;1.40;;
10687;SDS011;5392;42.688;23.298;2023-03-26T07:54:56;2.50;;;1.52;;
10687;SDS011;5392;42.688;23.298;2023-03-26T08:00:33;1.30;;;0.80;;
10687;SDS011;5392;42.688;23.298;2023-03-26T08:03:25;1.02;;;1.02;;
10687;SDS011;5392;42.688;23.298;2023-03-26T08:09:22;0.60;;;0.60;;
10687;SDS011;5392;42.688;23.298;2023-03-26T08:14:26;0.77;;;0.70;;
10687;SDS011;5392;42.688;23.298;2023-03-26T08:17:01;0.70;;;0.70;;
10687;SDS011;5392;42.688;23.298;2023-03-26T08:22:44;1.90;;;1.15;;
10687;SDS011;5392;42.688;23.298;2023-03-26T08:30:29;0.70;;;0.70;;
10687;SDS011;5392;42.688;23.298;2023-03-26T08:33:03;0.63;;;0.63;;
10687;SDS011;5392;42.688;23.298;2023-03-26T08:35:38;0.90;;;0.90;;
10687;SDS011;5392;42.688;23.298;2023-03-26T08:38:08;1.85;;;0.70;;
10687;SDS011;5392;42.688;23.298;2023-03-26T08:40:54;1.30;;;0.77;;
10687;SDS011;5392;42.688;23.298;2023-03-26T09:32:24;0.40;;;0.40;;
10687;SDS011;5392;42.688;23.298;2023-03-26T09:37:57;1.45;;;0.30;;
10687;SDS011;5392;42.688;23.298;2023-03-26T09:41:13;0.30;;;0.30;;
10687;SDS011;5392;42.688;23.298;2023-03-26T09:49:22;0.45;;;0.30;;
10687;SDS011;5392;42.688;23.298;2023-03-26T09:55:04;8.40;;;0.47;;
10687;SDS011;5392;42.688;23.298;2023-03-26T09:58:03;1.23;;;0.30;;
10687;SDS011;5392;42.688;23.298;2023-03-26T10:03:17;2.60;;;0.40;;
10687;SDS011;5392;42.688;23.298;2023-03-26T10:11:16;0.20;;;0.20;;
10687;SDS011;5392;42.688;23.298;2023-03-26T10:24:37;0.20;;;0.20;;
10687;SDS011;5392;42.688;23.298;2023-03-26T10:27:30;0.77;;;0.20;;
10687;SDS011;5392;42.688;23.298;2023-03-26T10:33:12;0.30;;;0.20;;
10687;SDS011;5392;42.688;23.298;2023-03-26T10:47:50;0.10;;;0.10;;
10687;SDS011;5392;42.688;23.298;2023-03-26T10:53:53;0.10;;;0.10;;
10687;SDS011;5392;42.688;23.298;2023-03-26T10:58:50;1.35;;;0.10;;
10687;SDS011;5392;42.688;23.298;2023-03-26T11:01:34;0.75;;;0.10;;
10687;SDS011;5392;42.688;23.298;2023-03-26T11:09:48;2.35;;;0.10;;
10687;SDS011;5392;42.688;23.298;2023-03-26T11:25:56;0.10;;;0.10;;
10687;SDS011;5392;42.688;23.298;2023-03-26T11:33:45;0.40;;;0.10;;
10687;SDS011;5392;42.688;23.298;2023-03-26T11:36:18;0.10;;;0.10;;
10687;SDS011;5392;42.688;23.298;2023-03-26T11:38:49;0.10;;;0.10;;
10687;SDS011;5392;42.688;23.298;2023-03-26T11:41:21;0.22;;;0.03;;
10687;SDS011;5392;42.688;23.298;2023-03-26T11:44:05;0.10;;;0.10;;
10687;SDS011;5392;42.688;23.298;2023-03-26T11:46:47;1.25;;;0.10;;
10687;SDS011;5392;42.688;23.298;2023-03-26T11:49:18;0.38;;;0.13;;
10687;SDS011;5392;42.688;23.298;2023-03-26T11:51:47;0.32;;;0.10;;
10687;SDS011;5392;42.688;23.298;2023-03-26T11:54:14;0.15;;;0.10;;
10687;SDS011;5392;42.688;23.298;2023-03-26T11:56:42;0.90;;;0.10;;
10687;SDS011;5392;42.688;23.298;2023-03-26T12:00:17;0.60;;;0.10;;
10687;SDS011;5392;42.688;23.298;2023-03-26T12:02:28;0.10;;;0.10;;
10687;SDS011;5392;42.688;23.298;2023-03-26T12:07:52;1.85;;;0.25;;
10687;SDS011;5392;42.688;23.298;2023-03-26T12:13:00;1.58;;;0.10;;
10687;SDS011;5392;42.688;23.298;2023-03-26T12:15:31;0.98;;;0.20;;
10687;SDS011;5392;42.688;23.298;2023-03-26T12:17:58;0.10;;;0.10;;
10687;SDS011;5392;42.688;23.298;2023-03-26T12:20:48;0.50;;;0.10;;
10687;SDS011;5392;42.688;23.298;2023-03-26T12:23:34;0.98;;;0.10;;
10687;SDS011;5392;42.688;23.298;2023-03-26T12:29:03;0.70;;;0.03;;
10687;SDS011;5392;42.688;23.298;2023-03-26T12:32:26;0.43;;;0.10;;
10687;SDS011;5392;42.688;23.298;2023-03-26T12:34:39;0.30;;;0.10;;
10687;SDS011;5392;42.688;23.298;2023-03-26T12:37:07;0.20;;;0.00;;
10687;SDS011;5392;42.688;23.298;2023-03-26T12:40:04;1.45;;;0.10;;
10687;SDS011;5392;42.688;23.298;2023-03-26T12:42:43;0.17;;;0.00;;
10687;SDS011;5392;42.688;23.298;2023-03-26T12:45:37;0.10;;;0.10;;
10687;SDS011;5392;42.688;23.298;2023-03-26T12:48:08;0.05;;;0.05;;
10687;SDS011;5392;42.688;23.298;2023-03-26T12:50:48;1.80;;;0.00;;
10687;SDS011;5392;42.688;23.298;2023-03-26T12:56:11;0.03;;;0.00;;
10687;SDS011;5392;42.688;23.298;2023-03-26T12:59:45;1.88;;;0.00;;
10687;SDS011;5392;42.688;23.298;2023-03-26T13:01:58;0.55;;;0.00;;
10687;SDS011;5392;42.688;23.298;2023-03-26T13:05:06;0.68;;;0.00;;
10687;SDS011;5392;42.688;23.298;2023-03-26T13:07:47;0.00;;;0.00;;
10687;SDS011;5392;42.688;23.298;2023-03-26T13:10:25;0.85;;;0.10;;
10687;SDS011;5392;42.688;23.298;2023-03-26T13:19:20;0.00;;;0.00;;
10687;SDS011;5392;42.688;23.298;2023-03-26T13:27:33;2.35;;;0.10;;
10687;SDS011;5392;42.688;23.298;2023-03-26T13:48:33;0.15;;;0.00;;
10687;SDS011;5392;42.688;23.298;2023-03-26T13:53:42;0.00;;;0.00;;
10687;SDS011;5392;42.688;23.298;2023-03-26T13:56:19;0.65;;;0.00;;
10687;SDS011;5392;42.688;23.298;2023-03-26T13:59:02;1.15;;;0.00;;
10687;SDS011;5392;42.688;23.298;2023-03-26T14:01:38;0.10;;;0.10;;
10687;SDS011;5392;42.688;23.298;2023-03-26T14:04:19;0.00;;;0.00;;
10687;SDS011;5392;42.688;23.298;2023-03-26T14:09:41;0.63;;;0.00;;
10687;SDS011;5392;42.688;23.298;2023-03-26T14:17:25;0.00;;;0.00;;
10687;SDS011;5392;42.688;23.298;2023-03-26T14:31:45;0.10;;;0.03;;
10687;SDS011;5392;42.688;23.298;2023-03-26T14:39:37;0.68;;;0.10;;
10687;SDS011;5392;42.688;23.298;2023-03-26T14:50:38;0.08;;;0.00;;
10687;SDS011;5392;42.688;23.298;2023-03-26T14:53:12;0.10;;;0.10;;
10687;SDS011;5392;42.688;23.298;2023-03-26T15:20:51;0.00;;;0.00;;
10687;SDS011;5392;42.688;23.298;2023-03-26T15:40:28;0.10;;;0.10;;
10687;SDS011;5392;42.688;23.298;2023-03-26T15:43:10;0.10;;;0.10;;
10687;SDS011;5392;42.688;23.298;2023-03-26T15:45:39;0.55;;;0.00;;
10687;SDS011;5392;42.688;23.298;2023-03-26T15:48:26;0.30;;;0.00;;
10687;SDS011;5392;42.688;23.298;2023-03-26T16:08:12;0.38;;;0.10;;
10687;SDS011;5392;42.688;23.298;2023-03-26T16:11:05;0.10;;;0.10;;
10687;SDS011;5392;42.688;23.298;2023-03-26T16:13:41;0.22;;;0.17;;
10687;SDS011;5392;42.688;23.298;2023-03-26T16:18:45;0.10;;;0.10;;
10687;SDS011;5392;42.688;23.298;2023-03-26T16:21:35;0.57;;;0.13;;
10687;SDS011;5392;42.688;23.298;2023-03-26T16:29:14;0.30;;;0.30;;
10687;SDS011;5392;42.688;23.298;2023-03-26T16:31:58;0.30;;;0.30;;
10687;SDS011;5392;42.688;23.298;2023-03-26T16:40:32;0.55;;;0.30;;
10687;SDS011;5392;42.688;23.298;2023-03-26T17:05:55;1.55;;;0.75;;
10687;SDS011;5392;42.688;23.298;2023-03-26T17:11:31;4.13;;;1.38;;
10687;SDS011;5392;42.688;23.298;2023-03-26T17:14:21;2.35;;;0.70;;
10687;SDS011;5392;42.688;23.298;2023-03-26T17:19:43;2.40;;;0.75;;
10687;SDS011;5392;42.688;23.298;2023-03-26T17:36:12;7.90;;;1.88;;
10687;SDS011;5392;42.688;23.298;2023-03-26T17:41:46;3.58;;;1.65;;
10687;SDS011;5392;42.688;23.298;2023-03-26T17:44:27;4.18;;;1.15;;
10687;SDS011;5392;42.688;23.298;2023-03-26T17:50:23;16.85;;;1.67;;
10687;SDS011;5392;42.688;23.298;2023-03-26T17:53:15;4.43;;;1.00;;
10687;SDS011;5392;42.688;23.298;2023-03-26T17:55:43;5.57;;;1.10;;
10687;SDS011;5392;42.688;23.298;2023-03-26T18:00:49;1.67;;;1.00;;
10687;SDS011;5392;42.688;23.298;2023-03-26T18:03:44;7.65;;;1.20;;
10687;SDS011;5392;42.688;23.298;2023-03-26T18:06:23;6.60;;;1.15;;
10687;SDS011;5392;42.688;23.298;2023-03-26T18:17:39;10.27;;;4.25;;
10687;SDS011;5392;42.688;23.298;2023-03-26T18:20:18;10.02;;;3.58;;
10687;SDS011;5392;42.688;23.298;2023-03-26T18:22:46;13.18;;;4.57;;
10687;SDS011;5392;42.688;23.298;2023-03-26T18:25:19;11.15;;;3.22;;
10687;SDS011;5392;42.688;23.298;2023-03-26T18:27:50;7.53;;;4.47;;
10687;SDS011;5392;42.688;23.298;2023-03-26T18:30:19;11.43;;;4.72;;
10687;SDS011;5392;42.688;23.298;2023-03-26T18:35:20;9.90;;;5.95;;
10687;SDS011;5392;42.688;23.298;2023-03-26T18:37:48;8.70;;;4.13;;
10687;SDS011;5392;42.688;23.298;2023-03-26T18:40:19;8.38;;;4.10;;
10687;SDS011;5392;42.688;23.298;2023-03-26T18:42:56;8.75;;;3.70;;
10687;SDS011;5392;42.688;23.298;2023-03-26T18:45:28;14.45;;;4.68;;
10687;SDS011;5392;42.688;23.298;2023-03-26T18:47:59;10.05;;;4.18;;
10687;SDS011;5392;42.688;23.298;2023-03-26T18:50:31;9.30;;;4.85;;
10687;SDS011;5392;42.688;23.298;2023-03-26T18:53:04;6.63;;;2.88;;
10687;SDS011;5392;42.688;23.298;2023-03-26T18:55:35;9.10;;;4.53;;
10687;SDS011;5392;42.688;23.298;2023-03-26T19:00:58;8.48;;;3.58;;
10687;SDS011;5392;42.688;23.298;2023-03-26T19:03:37;4.45;;;2.13;;
10687;SDS011;5392;42.688;23.298;2023-03-26T19:06:10;7.70;;;3.08;;
10687;SDS011;5392;42.688;23.298;2023-03-26T19:08:40;4.40;;;2.55;;
10687;SDS011;5392;42.688;23.298;2023-03-26T19:11:10;5.18;;;2.45;;
10687;SDS011;5392;42.688;23.298;2023-03-26T19:13:40;5.10;;;2.20;;
10687;SDS011;5392;42.688;23.298;2023-03-26T19:16:23;4.40;;;2.05;;
10687;SDS011;5392;42.688;23.298;2023-03-26T19:18:54;5.22;;;1.50;;
10687;SDS011;5392;42.688;23.298;2023-03-26T19:21:24;3.80;;;2.03;;
10687;SDS011;5392;42.688;23.298;2023-03-26T19:23:51;6.35;;;2.08;;
10687;SDS011;5392;42.688;23.298;2023-03-26T19:26:19;3.33;;;2.00;;
10687;SDS011;5392;42.688;23.298;2023-03-26T19:28:48;4.88;;;1.85;;
10687;SDS011;5392;42.688;23.298;2023-03-26T19:33:55;6.28;;;2.53;;
10687;SDS011;5392;42.688;23.298;2023-03-26T19:36:25;5.28;;;2.47;;
10687;SDS011;5392;42.688;23.298;2023-03-26T19:41:32;5.18;;;2.30;;
10687;SDS011;5392;42.688;23.298;2023-03-26T19:44:02;11.70;;;2.70;;
10687;SDS011;5392;42.688;23.298;2023-03-26T19:46:44;4.82;;;2.50;;
10687;SDS011;5392;42.688;23.298;2023-03-26T19:50:12;8.00;;;2.85;;
10687;SDS011;5392;42.688;23.298;2023-03-26T19:54:57;10.80;;;2.65;;
10687;SDS011;5392;42.688;23.298;2023-03-26T19:57:35;11.85;;;3.33;;
10687;SDS011;5392;42.688;23.298;2023-03-26T20:00:03;7.28;;;3.30;;
10687;SDS011;5392;42.688;23.298;2023-03-26T20:02:39;5.78;;;2.53;;
10687;SDS011;5392;42.688;23.298;2023-03-26T20:05:20;6.88;;;2.95;;
10687;SDS011;5392;42.688;23.298;2023-03-26T20:07:51;8.55;;;2.90;;
10687;SDS011;5392;42.688;23.298;2023-03-26T20:10:19;6.00;;;2.88;;
10687;SDS011;5392;42.688;23.298;2023-03-26T20:12:47;9.65;;;3.55;;
10687;SDS011;5392;42.688;23.298;2023-03-26T20:15:31;13.50;;;3.42;;
10687;SDS011;5392;42.688;23.298;2023-03-26T20:18:00;8.00;;;3.92;;
10687;SDS011;5392;42.688;23.298;2023-03-26T20:20:28;5.80;;;3.17;;
10687;SDS011;5392;42.688;23.298;2023-03-26T20:22:55;3.47;;;2.55;;
10687;SDS011;5392;42.688;23.298;2023-03-26T20:25:23;7.53;;;3.50;;
10687;SDS011;5392;42.688;23.298;2023-03-26T20:27:56;4.25;;;3.33;;
10687;SDS011;5392;42.688;23.298;2023-03-26T20:30:24;3.35;;;2.47;;
10687;SDS011;5392;42.688;23.298;2023-03-26T20:32:54;5.57;;;1.92;;
10687;SDS011;5392;42.688;23.298;2023-03-26T20:35:38;3.35;;;2.45;;
10687;SDS011;5392;42.688;23.298;2023-03-26T20:38:05;3.83;;;2.53;;
10687;SDS011;5392;42.688;23.298;2023-03-26T20:40:35;8.77;;;3.90;;
10687;SDS011;5392;42.688;23.298;2023-03-26T20:43:02;2.58;;;2.13;;
10687;SDS011;5392;42.688;23.298;2023-03-26T20:45:29;4.85;;;1.92;;
10687;SDS011;5392;42.688;23.298;2023-03-26T20:47:55;1.65;;;1.55;;
10687;SDS011;5392;42.688;23.298;2023-03-26T20:50:22;2.63;;;2.08;;
10687;SDS011;5392;42.688;23.298;2023-03-26T20:52:51;5.05;;;2.75;;
10687;SDS011;5392;42.688;23.298;2023-03-26T20:55:19;6.10;;;3.30;;
10687;SDS011;5392;42.688;23.298;2023-03-26T20:57:47;7.65;;;4.72;;
10687;SDS011;5392;42.688;23.298;2023-03-26T21:00:14;13.32;;;8.20;;
10687;SDS011;5392;42.688;23.298;2023-03-26T21:02:45;16.30;;;10.63;;
10687;SDS011;5392;42.688;23.298;2023-03-26T21:05:12;19.08;;;11.38;;
10687;SDS011;5392;42.688;23.298;2023-03-26T21:07:44;18.02;;;11.73;;
10687;SDS011;5392;42.688;23.298;2023-03-26T21:10:11;30.83;;;15.05;;
10687;SDS011;5392;42.688;23.298;2023-03-26T21:12:43;36.78;;;21.42;;
10687;SDS011;5392;42.688;23.298;2023-03-26T21:15:15;37.28;;;21.10;;
10687;SDS011;5392;42.688;23.298;2023-03-26T21:17:49;35.60;;;21.98;;
10687;SDS011;5392;42.688;23.298;2023-03-26T21:20:17;44.50;;;23.85;;
10687;SDS011;5392;42.688;23.298;2023-03-26T21:23:01;39.17;;;24.10;;
10687;SDS011;5392;42.688;23.298;2023-03-26T21:25:56;34.47;;;22.25;;
10687;SDS011;5392;42.688;23.298;2023-03-26T21:28:33;35.75;;;20.83;;
10687;SDS011;5392;42.688;23.298;2023-03-26T21:31:21;32.85;;;20.67;;
10687;SDS011;5392;42.688;23.298;2023-03-26T21:33:49;43.13;;;21.95;;
10687;SDS011;5392;42.688;23.298;2023-03-26T21:36:17;48.60;;;21.20;;
10687;SDS011;5392;42.688;23.298;2023-03-26T21:38:48;32.80;;;19.98;;
10687;SDS011;5392;42.688;23.298;2023-03-26T21:43:48;29.70;;;18.05;;
10687;SDS011;5392;42.688;23.298;2023-03-26T21:46:16;34.35;;;18.10;;
10687;SDS011;5392;42.688;23.298;2023-03-26T21:48:43;33.33;;;19.33;;
10687;SDS011;5392;42.688;23.298;2023-03-26T21:51:10;33.25;;;19.92;;
10687;SDS011;5392;42.688;23.298;2023-03-26T21:53:43;33.15;;;19.23;;
10687;SDS011;5392;42.688;23.298;2023-03-26T21:56:33;36.67;;;19.42;;
10687;SDS011;5392;42.688;23.298;2023-03-26T21:59:25;35.88;;;18.23;;